Pagrindinis puslapis
METAR-TAF:

METAR-TAF

Oro uostai :

Užicė, Serbija

platuma: 43-53-56N, ilguma: 19-41-52E, Aukštis: 904 m

Dabartinis oras

Ataskaita buvo paskelbta 19 minutes, ne 18:30 UTC
Vėjas 2 kt nuo kintamojo kryptimis
Temperatūra 9°C
Drėgmė 93%
Slėgis 1017 hPa
Matomumas 10 km arba daugiau
nėra debesų žemiau 1500 m ir nėra kamuolinių lietaus debesų

METAR: LYUZ 301830Z AUTO VRB02KT CAVOK 09/08 Q1017

Laikas: 20:49 (18:49 UTC)

Prognozė

Ataskaita buvo paskelbta 1 valandą ir 49 minutes, ne 17:00 UTC
Prognozė galioja nuo 30 metu 18 UTC su 31 metu 18 UTC
Vėjas 5 kt iš Šiaurės Vakarų
Matomumas 10 km arba daugiau
Išsisklaidę debesys ne aukštis 2000 ft
Laikinai
nuo 30 metu 21 UTC su 31 metu 06 UTC
Matomumas: 2000 m
Su prošvaistėmis ne aukštis 200 ft
rūkana
Laikinai
nuo 31 metu 08 UTC su 31 metu 16 UTC
Vėjas 14 kt iš Šiaurės Vakarų

TAF: LYUZ 301700Z 3018/3118 32005KT 9999 SCT020 TX13/3113Z TN06/3103Z TEMPO 3021/3106 2000 BR BKN002 TEMPO 3108/3116 31014KT

Orai ataskaitas ir orų prognozės (METAR, TAF).

turimą stotys yra geltonos ir raudonos taškus žemėlapyje.

Perkelti pele per norėdami pamatyti stoties vardą.

Tada spustelėkite, norėdami matyti oro stebėjimo ir prognozės.

Norėdami pakeisti žemėlapį: spustelėkite ant žalios mygtukų su juodo kryžiaus žemyn,; žalią mygtuką su brūkšneliu, jei norite nutolinti; arba žalių rodyklių gretimoms žemėlapius.


METAR-TAF: